CDT,Max TemperatureF,Mean TemperatureF,Min TemperatureF,Max Dew PointF,MeanDew PointF,Min DewpointF,Max Humidity, Mean Humidity, Min Humidity, Max Sea Level PressureIn, Mean Sea Level PressureIn, Min Sea Level PressureIn, Max VisibilityMiles, Mean VisibilityMiles, Min VisibilityMiles, Max Wind SpeedMPH, Mean Wind SpeedMPH, Max Gust SpeedMPH,PrecipitationIn, CloudCover, Events, WindDirDegrees
2013-10-1,77,66,56,63,60,55,100,86,56,30.02,29.98,29.94,10,7,0,17,7,23,0.00,4,Fog,214
2013-10-2,80,70,59,66,58,49,100,73,39,30.11,30.05,30.00,10,8,0,9,4,,0.00,3,Fog,320
2013-10-3,75,66,58,70,65,55,100,95,72,30.02,29.98,29.91,10,7,0,14,3,22,0.26,6,Fog-Rain,188
2013-10-4,81,72,62,70,66,62,99,87,61,30.03,29.99,29.94,10,9,5,12,5,,0.00,4,,207
2013-10-5,79,72,64,71,67,63,100,94,68,30.00,29.92,29.82,10,7,0,16,5,24,0.32,5,Fog-Rain,190
2013-10-6,65,54,43,66,50,39,100,83,51,29.81,29.77,29.71,10,8,2,17,7,24,0.21,6,Rain,239
2013-10-7,60,51,42,47,42,38,93,80,42,30.13,29.89,29.78,10,10,10,16,8,26,0.00,5,,262
2013-10-8,45,43,41,42,41,40,93,91,86,30.16,30.14,30.14,10,8,4,0,0,,0.00,1,,-1
2013-10-9,70,55,40,45,42,38,94,59,31,30.27,30.19,30.18,10,10,5,9,4,,0.10,0,,118
2013-10-10,73,56,41,50,46,39,98,72,37,30.21,30.15,30.09,10,10,5,8,1,,0.00,0,,143
2013-10-11,73,58,42,48,45,41,96,67,33,30.14,30.07,30.01,10,10,7,8,2,,0.00,0,,129
2013-10-12,76,60,45,62,52,44,97,75,45,30.17,30.06,30.01,10,10,5,14,4,23,0.00,2,Rain,200
2013-10-13,61,50,38,46,41,37,96,69,47,30.40,30.33,30.18,10,10,10,15,6,21,0.00,0,,344
2013-10-14,64,50,36,45,41,36,98,72,42,30.41,30.32,30.19,10,10,10,12,4,16,0.00,0,,80
2013-10-15,63,54,44,62,52,42,100,91,75,30.18,29.97,29.83,10,8,2,14,7,21,0.07,5,Rain,165
2013-10-16,53,48,42,46,44,41,94,82,73,29.95,29.91,29.88,10,10,10,15,8,20,0.00,6,,247
2013-10-17,51,44,35,47,43,36,99,88,70,29.94,29.89,29.83,10,9,3,18,6,25,0.07,6,Rain,244
2013-10-18,56,45,34,44,38,35,100,83,59,29.98,29.92,29.87,10,9,2,17,5,25,0.00,4,,243
2013-10-19,52,46,41,40,36,29,94,72,42,29.94,29.86,29.80,10,10,10,15,8,30,0.00,6,Rain,242
2013-10-20,62,48,36,41,38,34,93,66,44,29.91,29.85,29.78,10,10,10,15,9,24,0.00,4,Rain,210
2013-10-21,53,43,32,47,36,24,93,69,50,29.97,29.90,29.83,10,10,10,16,9,23,0.01,5,Rain,256
2013-10-22,45,36,29,35,28,20,96,78,38,29.99,29.95,29.90,10,10,7,15,6,9,0.00,5,Rain,247
2013-10-23,42,37,32,36,30,23,100,78,49,30.00,29.94,29.86,10,8,2,15,5,25,0.06,7,Rain-Snow,287
2013-10-24,42,37,33,34,27,23,95,68,50,30.26,30.12,29.99,10,10,1,16,8,25,0.00,7,Rain-Snow,277
2013-10-25,47,38,29,30,26,23,90,63,39,30.40,30.28,30.11,10,10,10,17,9,26,0.00,2,,252
2013-10-26,53,44,36,35,30,26,78,56,49,30.10,29.96,29.86,10,10,10,22,15,29,0.00,5,,266
2013-10-27,53,40,27,31,28,26,96,65,37,30.09,30.04,29.99,10,10,10,15,6,20,0.00,1,,242
2013-10-28,58,42,27,40,33,26,96,75,37,30.35,30.23,30.09,10,10,10,9,2,,0.00,1,,25
2013-10-29,54,43,32,40,36,32,97,74,50,30.38,30.29,30.17,10,10,10,12,5,,0.00,2,,104
2013-10-30,62,49,36,62,48,35,100,90,73,30.16,30.06,29.82,10,6,1,15,4,23,0.96,6,Rain-Thunderstorm,135
2013-10-31,62,56,48,63,58,47,100,99,91,29.81,29.51,29.23,10,7,3,21,14,31,0.85,8,Rain,213